»·PEaware :: N759SK KAPA-KGJT

N759SK :: KAPA-KGJT

FLIGHT INFORMATION

Flight Status: Arrived
Operator: Privately registered:
United States
More flights under this callsign
Pilot: Richard B. (16884)
Aircraft: BEECH AIRCRAFT SUPER KING AIR 350
(B350)
More flights by this aircraft type
Origin: KAPA Centennial
United States
Destination: KGJT Walker
United States
More flights between these airports :: More routes between these airports
Route: +ROCKI3 DBL V134 JNC
File this flight plan on PilotEdge
Remarks: RIL Direct
Altitude:
(Current/Filed)
20,000ft
Speed:
(Current/Filed)
270kts
Departed: 09-Oct-17 08:28 AM
Arrived: 09-Oct-17 09:52 AM
Distance/Time
Traveled:
173nm/1:24
Distance/Time
To Go:
Arrived

Flight Plot

Page will automatically refresh every two minutes.

Flight plan parsing failed; only flown route is shown


Map Options




Map Legend


Flown Route
Filed Route
Departure Airport
Arrival Airport
Navaid (VOR, NDB)
Fix

Horizontal Profiles

Position Reports

Time Latitude Longitude Heading Altitude Ground
Speed
09-Oct-17 07:50 39.578223 -104.848815 87 5887ft 0kts
09-Oct-17 07:51 39.578223 -104.848815 87 5887ft 0kts
09-Oct-17 07:52 39.578223 -104.848815 87 5887ft 0kts
09-Oct-17 07:53 39.578223 -104.848815 87 5887ft 0kts
09-Oct-17 07:54 39.578223 -104.848815 87 5887ft 0kts
09-Oct-17 07:55 39.578220 -104.848881 87 5887ft 2kts
09-Oct-17 07:56 39.578219 -104.848929 88 5887ft 0kts
09-Oct-17 07:57 39.578219 -104.848929 88 5887ft 0kts
09-Oct-17 07:58 39.578219 -104.848929 88 5887ft 0kts
09-Oct-17 07:59 39.578219 -104.848929 88 5887ft 0kts
09-Oct-17 08:00 39.578219 -104.848929 88 5887ft 0kts
09-Oct-17 08:01 39.578219 -104.848929 88 5887ft 0kts
09-Oct-17 08:02 39.578219 -104.848929 88 5887ft 0kts
09-Oct-17 08:03 39.578219 -104.848929 88 5887ft 0kts
09-Oct-17 08:04 39.578219 -104.848929 88 5887ft 0kts
09-Oct-17 08:05 39.578219 -104.848929 88 5887ft 0kts
09-Oct-17 08:06 39.578219 -104.848929 88 5887ft 0kts
09-Oct-17 08:07 39.578219 -104.848929 88 5887ft 0kts
09-Oct-17 08:08 39.578219 -104.848929 88 5887ft 0kts
09-Oct-17 08:09 39.578219 -104.848929 88 5887ft 0kts
09-Oct-17 08:10 39.578219 -104.848929 88 5887ft 0kts
09-Oct-17 08:11 39.578219 -104.848929 88 5887ft 0kts
09-Oct-17 08:12 39.578219 -104.848929 88 5887ft 0kts
09-Oct-17 08:13 39.578219 -104.848929 88 5887ft 0kts
09-Oct-17 08:14 39.578219 -104.848929 88 5887ft 0kts
09-Oct-17 08:15 39.578219 -104.848929 88 5887ft 0kts
09-Oct-17 08:16 39.578219 -104.848929 88 5887ft 0kts
09-Oct-17 08:17 39.578462 -104.848948 355 5887ft 8kts
09-Oct-17 08:18 39.576014 -104.849960 177 5887ft 25kts
09-Oct-17 08:19 39.566233 -104.849516 178 5887ft 38kts
09-Oct-17 08:20 39.557698 -104.849098 177 5887ft 17kts
09-Oct-17 08:21 39.556830 -104.849389 267 5887ft 0kts
09-Oct-17 08:22 39.556830 -104.849391 267 5887ft 0kts
09-Oct-17 08:23 39.556830 -104.849393 267 5887ft 0kts
09-Oct-17 08:24 39.556830 -104.849394 266 5887ft 0kts
09-Oct-17 08:25 39.556830 -104.849396 266 5887ft 0kts
09-Oct-17 08:26 39.556830 -104.849398 266 5887ft 0kts
09-Oct-17 08:27 39.556830 -104.849400 266 5887ft 0kts
09-Oct-17 08:28 39.556829 -104.849401 266 5887ft 0kts
09-Oct-17 08:29 39.556829 -104.849403 266 5887ft 0kts
09-Oct-17 08:30 39.556829 -104.849405 266 5887ft 0kts
09-Oct-17 08:31 39.557181 -104.850235 350 5887ft 15kts
09-Oct-17 08:32 39.590842 -104.850934 359 6980ft 173kts
09-Oct-17 08:33 39.641457 -104.857421 358 8007ft 209kts
09-Oct-17 08:34 39.698899 -104.874170 322 9105ft 221kts
09-Oct-17 08:35 39.716738 -104.951275 277 10608ft 229kts
09-Oct-17 08:36 39.728708 -105.034897 276 12085ft 242kts
09-Oct-17 08:37 39.743345 -105.121348 276 13636ft 246kts
09-Oct-17 08:38 39.750179 -105.206971 255 15140ft 233kts
09-Oct-17 08:40 39.744932 -105.287484 245 16667ft 215kts
09-Oct-17 08:41 39.738127 -105.359458 244 17953ft 207kts
09-Oct-17 08:42 39.725466 -105.441607 244 18882ft 250kts
09-Oct-17 08:43 39.709133 -105.534726 244 19899ft 282kts
09-Oct-17 08:44 39.689543 -105.638199 245 19893ft 304kts
09-Oct-17 08:45 39.668519 -105.745834 245 19897ft 313kts
09-Oct-17 08:46 39.645690 -105.856076 244 19884ft 317kts
09-Oct-17 08:47 39.622523 -105.966272 243 19888ft 317kts
09-Oct-17 08:48 39.599281 -106.076669 244 19886ft 318kts
09-Oct-17 08:49 39.577022 -106.187981 245 19891ft 318kts
09-Oct-17 08:50 39.555121 -106.299106 245 19887ft 318kts
09-Oct-17 08:51 39.533274 -106.410685 245 19888ft 318kts
09-Oct-17 08:52 39.511003 -106.521518 244 19885ft 318kts
09-Oct-17 08:53 39.488357 -106.632152 245 19885ft 319kts
09-Oct-17 08:54 39.466570 -106.743662 245 19892ft 319kts
09-Oct-17 08:55 39.445029 -106.854911 245 19894ft 319kts
09-Oct-17 08:56 39.423485 -106.966480 245 19886ft 319kts
09-Oct-17 08:57 39.402068 -107.077788 245 19886ft 319kts
09-Oct-17 08:58 39.380705 -107.188926 245 19892ft 319kts
09-Oct-17 08:59 39.359315 -107.300411 245 19888ft 319kts
09-Oct-17 08:59 39.341581 -107.393180 245 19890ft 319kts
09-Oct-17 09:00 39.320406 -107.504507 246 19889ft 319kts
09-Oct-17 09:01 39.298753 -107.616472 246 18802ft 330kts
09-Oct-17 09:03 39.274418 -107.744786 245 17124ft 285kts
09-Oct-17 09:03 39.262891 -107.826586 246 15815ft 274kts
09-Oct-17 09:04 39.248483 -107.923378 246 14719ft 271kts
09-Oct-17 09:05 39.234040 -108.016155 246 14686ft 260kts
09-Oct-17 09:07 39.217736 -108.122787 246 14686ft 259kts
09-Oct-17 09:07 39.206195 -108.198655 246 14680ft 258kts
09-Oct-17 09:08 39.187840 -108.286688 240 14686ft 253kts
09-Oct-17 09:09 39.167132 -108.373456 239 14685ft 252kts
09-Oct-17 09:10 39.146308 -108.459802 239 14686ft 252kts
09-Oct-17 09:11 39.125426 -108.546403 239 14581ft 257kts
09-Oct-17 09:12 39.141825 -108.648507 288 13038ft 314kts
09-Oct-17 09:13 39.172278 -108.754875 288 11515ft 317kts
09-Oct-17 09:14 39.200020 -108.857345 288 10669ft 280kts
09-Oct-17 09:15 39.225867 -108.948247 300 10670ft 265kts
09-Oct-17 09:16 39.270033 -109.023808 324 10651ft 260kts
09-Oct-17 09:17 39.329058 -109.020967 50 10494ft 205kts
09-Oct-17 09:18 39.340761 -108.953077 90 9686ft 190kts
09-Oct-17 09:19 39.325851 -108.893698 122 9674ft 170kts
09-Oct-17 09:20 39.299431 -108.846384 121 9686ft 149kts
09-Oct-17 09:21 39.275901 -108.801509 120 9258ft 158kts
09-Oct-17 09:22 39.250968 -108.756020 121 8853ft 151kts
09-Oct-17 09:23 39.225339 -108.709339 120 7997ft 167kts
09-Oct-17 09:24 39.196584 -108.656948 119 6966ft 189kts
09-Oct-17 09:25 39.166018 -108.599919 127 5932ft 192kts
09-Oct-17 09:26 39.134628 -108.546072 126 5365ft 193kts
09-Oct-17 09:27 39.102293 -108.491227 125 6163ft 200kts
09-Oct-17 09:28 39.067854 -108.431636 124 6821ft 202kts
09-Oct-17 09:29 39.020443 -108.438754 242 8358ft 240kts
09-Oct-17 09:30 39.015422 -108.530697 275 9126ft 265kts
09-Oct-17 09:31 39.028539 -108.626751 284 9681ft 283kts
09-Oct-17 09:32 39.046956 -108.723591 280 9676ft 271kts
09-Oct-17 09:33 39.057393 -108.818568 284 9677ft 270kts
09-Oct-17 09:34 39.081241 -108.910206 293 9677ft 269kts
09-Oct-17 09:35 39.110180 -108.998063 293 9670ft 262kts
09-Oct-17 09:36 39.146581 -109.073191 346 9667ft 236kts
09-Oct-17 09:37 39.180927 -109.036539 97 9675ft 178kts
09-Oct-17 09:38 39.169181 -108.974728 106 9665ft 178kts
09-Oct-17 09:39 39.126652 -108.974003 234 9691ft 232kts
09-Oct-17 09:40 39.126745 -109.058279 287 9680ft 243kts
09-Oct-17 09:41 39.171423 -109.105761 20 8842ft 216kts
09-Oct-17 09:42 39.211676 -109.060309 61 7888ft 179kts
09-Oct-17 09:43 39.234356 -109.007132 68 7885ft 157kts
09-Oct-17 09:44 39.249278 -108.959221 71 7877ft 140kts
09-Oct-17 09:45 39.262458 -108.909211 74 7878ft 150kts
09-Oct-17 09:46 39.267327 -108.855882 86 7877ft 150kts
09-Oct-17 09:47 39.268363 -108.801634 90 7877ft 151kts
09-Oct-17 09:48 39.248421 -108.754104 123 7877ft 157kts
09-Oct-17 09:49 39.224043 -108.708000 116 7792ft 155kts
09-Oct-17 09:50 39.197363 -108.657195 120 6988ft 180kts
09-Oct-17 09:51 39.169577 -108.606367 126 6068ft 162kts
09-Oct-17 09:52 39.142653 -108.561658 139 5404ft 155kts
09-Oct-17 09:53 39.111158 -108.523448 129 5287ft 158kts
09-Oct-17 09:54 39.110361 -108.481336 347 5303ft 152kts
09-Oct-17 09:55 39.124460 -108.525246 307 4862ft 87kts
09-Oct-17 09:56 39.127092 -108.531445 217 4862ft 0kts
09-Oct-17 09:57 39.124438 -108.529829 219 4862ft 8kts
09-Oct-17 09:58 39.124226 -108.530052 215 4862ft 0kts
09-Oct-17 09:59 39.124226 -108.530052 215 4862ft 0kts
09-Oct-17 10:00 39.124226 -108.530052 215 4862ft 0kts
09-Oct-17 10:01 39.124226 -108.530052 215 4862ft 0kts
09-Oct-17 10:02 39.124226 -108.530052 215 4862ft 0kts
09-Oct-17 10:03 39.124226 -108.530052 215 4862ft 0kts
09-Oct-17 10:04 39.124226 -108.530052 215 4862ft 0kts
09-Oct-17 10:05 39.124226 -108.530052 215 4862ft 0kts
09-Oct-17 10:06 39.124226 -108.530052 215 4862ft 0kts
09-Oct-17 10:07 39.124226 -108.530052 215 4862ft 0kts
09-Oct-17 10:08 39.124226 -108.530052 215 4862ft 0kts
09-Oct-17 10:09 39.124226 -108.530052 215 4862ft 0kts
09-Oct-17 10:10 39.124226 -108.530052 215 4862ft 0kts

Navigation Log

Ident Type
Flight plan parsing failed, navigation log unavailable